Time;durP1;ratioP1;P1;durP2;ratioP2;P2;SDS_P1;SDS_P2;PMS_P1;PMS_P2;Temp;Humidity;BMP_temperature;BMP_pressure;BME280_temperature;BME280_humidity;BME280_pressure;Samples;Min_cycle;Max_cycle;Signal;HPM_P1;HPM_P2
2023/12/07 00:00:16;;;;;;;17.00;9.75;;;;;;;;;;5115258;27;20056;-74
2023/12/07 00:02:42;;;;;;;14.98;10.25;;;;;;;;;;5122968;27;20055;-74
2023/12/07 00:05:09;;;;;;;13.88;9.27;;;;;;;;;;5120640;27;20052;-74
2023/12/07 00:07:35;;;;;;;17.40;11.10;;;;;;;;;;5120082;27;20124;-74
2023/12/07 00:10:02;;;;;;;15.43;9.43;;;;;;;;;;5122801;27;20071;-74
2023/12/07 00:12:28;;;;;;;20.38;9.60;;;;;;;;;;5121633;27;20485;-74
2023/12/07 00:14:54;;;;;;;16.30;10.02;;;;;;;;;;5119133;27;20051;-74
2023/12/07 00:17:21;;;;;;;19.75;9.75;;;;;;;;;;5123241;27;20574;-75
2023/12/07 00:19:50;;;;;;;13.77;9.65;;;;;;;;;;5121325;27;20052;-74
2023/12/07 00:22:16;;;;;;;13.48;9.07;;;;;;;;;;5125480;27;20052;-74
2023/12/07 00:24:43;;;;;;;16.02;9.73;;;;;;;;;;5122715;27;20636;-74
2023/12/07 00:27:09;;;;;;;14.57;9.30;;;;;;;;;;5121142;27;20519;-74
2023/12/07 00:29:36;;;;;;;14.82;10.05;;;;;;;;;;5121114;27;20063;-74
2023/12/07 00:32:03;;;;;;;16.55;9.65;;;;;;;;;;5122651;27;20625;-74
2023/12/07 00:34:30;;;;;;;12.43;8.70;;;;;;;;;;5122144;27;20055;-75
2023/12/07 00:36:56;;;;;;;16.63;9.88;;;;;;;;;;5120830;27;20051;-74
2023/12/07 00:39:23;;;;;;;14.77;9.75;;;;;;;;;;5140313;27;20115;-75
2023/12/07 00:41:49;;;;;;;12.80;9.00;;;;;;;;;;5143026;27;20073;-74
2023/12/07 00:44:16;;;;;;;16.58;10.95;;;;;;;;;;5144498;27;20050;-75
2023/12/07 00:46:43;;;;;;;16.80;9.95;;;;;;;;;;5141068;27;20152;-75
2023/12/07 00:49:09;;;;;;;14.93;9.98;;;;;;;;;;5133909;27;20054;-74
2023/12/07 00:51:36;;;;;;;13.70;8.98;;;;;;;;;;5132160;27;20789;-75
2023/12/07 00:54:03;;;;;;;14.55;9.15;;;;;;;;;;5133086;27;20147;-75
2023/12/07 00:56:29;;;;;;;16.77;9.43;;;;;;;;;;5143172;27;20108;-74
2023/12/07 00:58:55;;;;;;;14.65;9.88;;;;;;;;;;5143694;27;20055;-75
2023/12/07 01:01:22;;;;;;;14.73;9.60;;;;;;;;;;5142129;27;20057;-75
2023/12/07 01:03:49;;;;;;;16.30;9.82;;;;;;;;;;5143097;27;20091;-74
2023/12/07 01:06:16;;;;;;;14.93;10.40;;;;;;;;;;5142462;27;20051;-75
2023/12/07 01:08:43;;;;;;;16.15;10.43;;;;;;;;;;5139588;27;20078;-75
2023/12/07 01:11:09;;;;;;;12.63;8.88;;;;;;;;;;5140796;27;20425;-74
2023/12/07 01:13:36;;;;;;;15.45;10.02;;;;;;;;;;5142633;27;20053;-74
2023/12/07 01:16:02;;;;;;;14.98;9.52;;;;;;;;;;5144761;27;20055;-74
2023/12/07 01:18:29;;;;;;;15.68;10.10;;;;;;;;;;5143029;27;20583;-74
2023/12/07 01:20:55;;;;;;;13.93;9.23;;;;;;;;;;5143133;27;20055;-74
2023/12/07 01:23:22;;;;;;;14.70;8.73;;;;;;;;;;5145061;27;20051;-75
2023/12/07 01:25:48;;;;;;;12.40;8.25;;;;;;;;;;5142839;27;20134;-75
2023/12/07 01:28:15;;;;;;;17.35;9.20;;;;;;;;;;5143607;27;20051;-74
2023/12/07 01:30:41;;;;;;;14.43;8.95;;;;;;;;;;5143535;27;20047;-75
2023/12/07 01:33:08;;;;;;;15.90;10.15;;;;;;;;;;5143746;27;20054;-75
2023/12/07 01:35:34;;;;;;;17.15;9.90;;;;;;;;;;5140858;27;20051;-74
2023/12/07 01:38:00;;;;;;;17.00;9.85;;;;;;;;;;5142469;27;20567;-74
2023/12/07 01:40:27;;;;;;;14.15;9.68;;;;;;;;;;5135685;27;20569;-74
2023/12/07 01:42:53;;;;;;;14.65;9.40;;;;;;;;;;5140805;27;20555;-75
2023/12/07 01:45:20;;;;;;;12.27;8.77;;;;;;;;;;5141790;27;20536;-74
2023/12/07 01:47:47;;;;;;;15.48;10.18;;;;;;;;;;5142625;27;20167;-74
2023/12/07 01:50:16;;;;;;;15.80;10.80;;;;;;;;;;5138042;27;20523;-75
2023/12/07 01:52:47;;;;;;;16.52;9.30;;;;;;;;;;5139681;27;20299;-75
2023/12/07 01:55:14;;;;;;;19.35;10.23;;;;;;;;;;5141497;27;20055;-75
2023/12/07 01:57:41;;;;;;;13.88;9.98;;;;;;;;;;5141534;27;20136;-75
2023/12/07 02:00:09;;;;;;;17.70;10.30;;;;;;;;;;5143588;27;20070;-74
2023/12/07 02:02:35;;;;;;;19.63;11.77;;;;;;;;;;5147443;27;20039;-73
2023/12/07 02:05:03;;;;;;;15.23;10.52;;;;;;;;;;5144941;27;20126;-74
2023/12/07 02:07:30;;;;;;;15.65;11.07;;;;;;;;;;5144346;27;20057;-73
2023/12/07 02:09:57;;;;;;;16.58;10.55;;;;;;;;;;5155085;27;20044;-75
2023/12/07 02:12:24;;;;;;;16.55;10.25;;;;;;;;;;5142370;27;20051;-75
2023/12/07 02:14:53;;;;;;;18.25;11.85;;;;;;;;;;5141639;27;20055;-75
2023/12/07 02:17:23;;;;;;;18.27;11.15;;;;;;;;;;5146700;27;20048;-74
2023/12/07 02:19:53;;;;;;;19.60;10.85;;;;;;;;;;5145644;27;20131;-74
2023/12/07 02:22:29;;;;;;;14.07;10.25;;;;;;;;;;5144977;27;20055;-74
2023/12/07 02:25:05;;;;;;;16.08;10.77;;;;;;;;;;5146007;27;20500;-74
2023/12/07 02:27:35;;;;;;;16.77;10.23;;;;;;;;;;5142108;27;20051;-74
2023/12/07 02:30:01;;;;;;;17.67;10.60;;;;;;;;;;5143757;27;20054;-74
2023/12/07 02:32:28;;;;;;;21.40;11.68;;;;;;;;;;5141944;27;20101;-74
2023/12/07 02:34:54;;;;;;;14.10;9.70;;;;;;;;;;5144025;27;20048;-74
2023/12/07 02:37:21;;;;;;;15.48;10.23;;;;;;;;;;5143395;27;20541;-75
2023/12/07 02:39:49;;;;;;;17.25;10.77;;;;;;;;;;5143195;27;20082;-73
2023/12/07 02:42:16;;;;;;;14.32;10.68;;;;;;;;;;5138415;27;20056;-74
2023/12/07 02:44:43;;;;;;;16.05;10.25;;;;;;;;;;5143350;27;20051;-74
2023/12/07 02:47:09;;;;;;;19.13;11.00;;;;;;;;;;5141189;27;20132;-74
2023/12/07 02:49:35;;;;;;;17.60;10.52;;;;;;;;;;5136194;27;20051;-74
2023/12/07 02:52:02;;;;;;;19.58;11.00;;;;;;;;;;5142703;27;20834;-75
2023/12/07 02:54:28;;;;;;;17.70;10.13;;;;;;;;;;5144862;27;20058;-74
2023/12/07 02:56:54;;;;;;;16.60;10.02;;;;;;;;;;5143622;27;20051;-75
2023/12/07 02:59:21;;;;;;;14.65;10.88;;;;;;;;;;5144677;27;20062;-74
2023/12/07 03:01:48;;;;;;;13.82;9.95;;;;;;;;;;5144500;27;20053;-74
2023/12/07 03:04:14;;;;;;;16.15;10.57;;;;;;;;;;5144513;27;20071;-74
2023/12/07 03:06:41;;;;;;;14.15;9.85;;;;;;;;;;5143771;27;20174;-74
2023/12/07 03:09:07;;;;;;;14.95;10.23;;;;;;;;;;5143971;27;20124;-75
2023/12/07 03:11:34;;;;;;;14.23;9.57;;;;;;;;;;5142859;27;20051;-74
2023/12/07 03:14:00;;;;;;;14.68;10.43;;;;;;;;;;5144655;27;20051;-74
2023/12/07 03:16:27;;;;;;;16.65;10.10;;;;;;;;;;5144815;27;20074;-73
2023/12/07 03:18:53;;;;;;;13.43;9.82;;;;;;;;;;5144685;27;20055;-74
2023/12/07 03:21:19;;;;;;;16.65;11.23;;;;;;;;;;5144471;27;20597;-74
2023/12/07 03:23:46;;;;;;;17.77;10.32;;;;;;;;;;5141797;27;20055;-74
2023/12/07 03:26:13;;;;;;;15.10;11.27;;;;;;;;;;5144063;27;20583;-73
2023/12/07 03:28:39;;;;;;;14.73;9.75;;;;;;;;;;5143718;27;20077;-75
2023/12/07 03:31:05;;;;;;;16.85;10.30;;;;;;;;;;5145492;27;20051;-74
2023/12/07 03:33:32;;;;;;;14.75;10.30;;;;;;;;;;5145104;27;20573;-74
2023/12/07 03:35:58;;;;;;;14.50;9.88;;;;;;;;;;5143635;27;20043;-74
2023/12/07 03:38:25;;;;;;;19.15;11.32;;;;;;;;;;5143103;27;20105;-74
2023/12/07 03:40:51;;;;;;;16.83;10.45;;;;;;;;;;5145696;27;20557;-73
2023/12/07 03:43:19;;;;;;;13.88;10.35;;;;;;;;;;5141916;27;20127;-74
2023/12/07 03:45:45;;;;;;;13.85;10.18;;;;;;;;;;5133853;27;20052;-74
2023/12/07 03:48:12;;;;;;;16.02;11.40;;;;;;;;;;5139401;27;20228;-74
2023/12/07 03:50:39;;;;;;;15.43;9.98;;;;;;;;;;5142312;27;20060;-74
2023/12/07 03:53:05;;;;;;;16.38;10.63;;;;;;;;;;5143591;27;20500;-74
2023/12/07 03:55:31;;;;;;;14.23;9.98;;;;;;;;;;5143458;27;20050;-73
2023/12/07 03:57:58;;;;;;;14.20;9.77;;;;;;;;;;5142236;27;20532;-74
2023/12/07 04:00:25;;;;;;;15.95;10.35;;;;;;;;;;5142613;27;20051;-74
2023/12/07 04:02:51;;;;;;;14.88;10.15;;;;;;;;;;5143369;27;20048;-74
2023/12/07 04:05:18;;;;;;;14.48;10.55;;;;;;;;;;5141358;27;20827;-74
2023/12/07 04:07:44;;;;;;;13.32;9.70;;;;;;;;;;5143610;27;20285;-73
2023/12/07 04:10:11;;;;;;;21.40;12.32;;;;;;;;;;5142439;27;20148;-74
2023/12/07 04:12:37;;;;;;;13.23;10.18;;;;;;;;;;5142119;27;20126;-74
2023/12/07 04:15:04;;;;;;;14.63;10.43;;;;;;;;;;5143622;27;20051;-73
2023/12/07 04:17:30;;;;;;;17.35;10.23;;;;;;;;;;5147633;27;20098;-74
2023/12/07 04:19:56;;;;;;;11.98;9.35;;;;;;;;;;5142783;27;20519;-73
2023/12/07 04:22:23;;;;;;;17.40;11.30;;;;;;;;;;5143433;27;20051;-74
2023/12/07 04:24:50;;;;;;;16.83;11.57;;;;;;;;;;5143211;27;20554;-73
2023/12/07 04:27:16;;;;;;;20.23;11.10;;;;;;;;;;5142410;27;20082;-73
2023/12/07 04:29:43;;;;;;;19.40;10.95;;;;;;;;;;5143452;27;20047;-74
2023/12/07 04:32:09;;;;;;;18.83;11.30;;;;;;;;;;5142881;27;20456;-74
2023/12/07 04:34:36;;;;;;;14.25;9.70;;;;;;;;;;5143129;27;20052;-73
2023/12/07 04:37:02;;;;;;;16.55;10.93;;;;;;;;;;5144065;27;20074;-73
2023/12/07 04:39:29;;;;;;;14.73;10.70;;;;;;;;;;5144106;27;20172;-73
2023/12/07 04:41:55;;;;;;;14.38;10.75;;;;;;;;;;5141395;27;20043;-73
2023/12/07 04:44:22;;;;;;;16.52;10.70;;;;;;;;;;5142118;27;20136;-73
2023/12/07 04:46:48;;;;;;;16.05;10.65;;;;;;;;;;5143239;27;20055;-74
2023/12/07 04:49:14;;;;;;;17.17;10.38;;;;;;;;;;5144281;27;20051;-73
2023/12/07 04:51:42;;;;;;;16.67;10.20;;;;;;;;;;5143569;27;20051;-73
2023/12/07 04:54:08;;;;;;;15.27;11.45;;;;;;;;;;5140884;27;20058;-75
2023/12/07 04:56:44;;;;;;;18.05;10.73;;;;;;;;;;5143187;27;20062;-75
2023/12/07 04:59:11;;;;;;;19.25;11.15;;;;;;;;;;5141860;27;20389;-75
2023/12/07 05:01:38;;;;;;;14.70;10.50;;;;;;;;;;5141932;27;20071;-74
2023/12/07 05:04:04;;;;;;;18.35;10.48;;;;;;;;;;5142571;27;20519;-74
2023/12/07 05:06:31;;;;;;;17.98;11.80;;;;;;;;;;5142414;27;20104;-74
2023/12/07 05:08:58;;;;;;;24.05;12.23;;;;;;;;;;5141184;27;20047;-74
2023/12/07 05:11:25;;;;;;;16.23;12.23;;;;;;;;;;5141983;27;20047;-75
2023/12/07 05:13:51;;;;;;;18.48;11.65;;;;;;;;;;5142247;27;20062;-74
2023/12/07 05:16:18;;;;;;;19.35;11.18;;;;;;;;;;5143445;27;20801;-75
2023/12/07 05:18:44;;;;;;;16.15;10.85;;;;;;;;;;5144186;27;20062;-74
2023/12/07 05:21:11;;;;;;;16.95;11.25;;;;;;;;;;5141936;27;20056;-74
2023/12/07 05:23:37;;;;;;;15.88;10.88;;;;;;;;;;5142690;27;20055;-74
2023/12/07 05:26:05;;;;;;;24.27;12.10;;;;;;;;;;5142697;27;20080;-74
2023/12/07 05:28:32;;;;;;;23.48;13.30;;;;;;;;;;5137983;27;20135;-74
2023/12/07 05:30:58;;;;;;;22.45;13.07;;;;;;;;;;5146815;27;20151;-74
2023/12/07 05:33:25;;;;;;;20.73;11.88;;;;;;;;;;5138539;27;20196;-74
2023/12/07 05:35:51;;;;;;;20.67;12.48;;;;;;;;;;5142308;27;20043;-74
2023/12/07 05:38:18;;;;;;;20.45;11.98;;;;;;;;;;5143586;27;20085;-74
2023/12/07 05:40:44;;;;;;;22.13;12.23;;;;;;;;;;5143739;27;20071;-73
2023/12/07 05:43:11;;;;;;;22.85;14.25;;;;;;;;;;5143371;27;20051;-74
2023/12/07 05:45:37;;;;;;;56.38;14.18;;;;;;;;;;5143756;27;20055;-73
2023/12/07 05:48:04;;;;;;;20.85;13.88;;;;;;;;;;5144439;27;20105;-73
2023/12/07 05:50:30;;;;;;;86.60;17.17;;;;;;;;;;5143351;27;20581;-74
2023/12/07 05:52:56;;;;;;;29.38;13.85;;;;;;;;;;5142634;27;20056;-73
2023/12/07 05:55:23;;;;;;;23.42;12.05;;;;;;;;;;5142227;27;20093;-73
2023/12/07 05:57:51;;;;;;;39.17;16.40;;;;;;;;;;5140850;27;20105;-73
2023/12/07 06:00:18;;;;;;;31.17;13.30;;;;;;;;;;5129901;27;20051;-73
2023/12/07 06:02:45;;;;;;;20.95;12.20;;;;;;;;;;5144548;27;20104;-73
2023/12/07 06:05:12;;;;;;;19.67;12.95;;;;;;;;;;5157092;27;20145;-74
2023/12/07 06:07:38;;;;;;;55.70;14.40;;;;;;;;;;5142740;27;20658;-74
2023/12/07 06:10:05;;;;;;;25.90;12.55;;;;;;;;;;5142115;27;20062;-73
2023/12/07 06:12:32;;;;;;;32.47;12.68;;;;;;;;;;5141892;27;20063;-74
2023/12/07 06:14:58;;;;;;;26.30;13.38;;;;;;;;;;5142200;27;20132;-74
2023/12/07 06:17:25;;;;;;;92.53;15.88;;;;;;;;;;5142433;27;20593;-73
2023/12/07 06:19:51;;;;;;;70.78;16.60;;;;;;;;;;5141223;27;20122;-74
2023/12/07 06:22:18;;;;;;;47.33;14.27;;;;;;;;;;5142817;27;20405;-73
2023/12/07 06:24:44;;;;;;;53.80;14.43;;;;;;;;;;5142286;27;20055;-73
2023/12/07 06:27:11;;;;;;;56.60;15.45;;;;;;;;;;5133172;27;20055;-73
2023/12/07 06:29:37;;;;;;;37.58;15.95;;;;;;;;;;5141816;27;20058;-73
2023/12/07 06:32:04;;;;;;;34.45;14.30;;;;;;;;;;5140148;27;20174;-73
2023/12/07 06:34:30;;;;;;;74.43;16.25;;;;;;;;;;5133185;27;20408;-74
2023/12/07 06:36:57;;;;;;;43.30;14.50;;;;;;;;;;5133939;27;20508;-73
2023/12/07 06:39:23;;;;;;;49.85;16.60;;;;;;;;;;5140515;27;20158;-74
2023/12/07 06:41:50;;;;;;;36.78;14.70;;;;;;;;;;5136125;27;20055;-73
2023/12/07 06:44:16;;;;;;;52.95;15.23;;;;;;;;;;5142187;27;20614;-73
2023/12/07 06:46:43;;;;;;;36.00;15.35;;;;;;;;;;5149566;27;20559;-73
2023/12/07 06:49:09;;;;;;;27.83;15.23;;;;;;;;;;5155421;27;20051;-73
2023/12/07 06:51:36;;;;;;;26.13;15.10;;;;;;;;;;5148554;27;20120;-74
2023/12/07 06:54:02;;;;;;;32.58;14.38;;;;;;;;;;5144086;27;20147;-76
2023/12/07 06:56:29;;;;;;;31.45;14.98;;;;;;;;;;5143228;27;20566;-74
2023/12/07 06:58:56;;;;;;;41.10;15.63;;;;;;;;;;5143965;27;20611;-73
2023/12/07 07:01:22;;;;;;;23.42;14.88;;;;;;;;;;5145430;27;20548;-73
2023/12/07 07:03:49;;;;;;;30.33;15.23;;;;;;;;;;5144193;27;20051;-73
2023/12/07 07:06:15;;;;;;;24.63;15.32;;;;;;;;;;5144672;27;20048;-74
2023/12/07 07:08:42;;;;;;;29.42;15.13;;;;;;;;;;5142329;27;20478;-74
2023/12/07 07:11:12;;;;;;;25.33;15.05;;;;;;;;;;5144052;27;20054;-74
2023/12/07 07:13:39;;;;;;;63.92;18.33;;;;;;;;;;5143573;27;20068;-72
2023/12/07 07:16:07;;;;;;;29.58;16.42;;;;;;;;;;5144705;27;20126;-75
2023/12/07 07:18:35;;;;;;;28.00;14.50;;;;;;;;;;5143492;27;20470;-73
2023/12/07 07:21:03;;;;;;;29.45;13.90;;;;;;;;;;5144524;27;20055;-73
2023/12/07 07:23:30;;;;;;;22.88;15.70;;;;;;;;;;5158492;27;20892;-73
2023/12/07 07:25:56;;;;;;;43.17;15.77;;;;;;;;;;5144362;27;20453;-74
2023/12/07 07:28:23;;;;;;;37.92;15.68;;;;;;;;;;5143951;27;20087;-74
2023/12/07 07:30:51;;;;;;;25.85;15.65;;;;;;;;;;5144105;27;20096;-73
2023/12/07 07:33:17;;;;;;;31.15;13.73;;;;;;;;;;5154897;27;20054;-74
2023/12/07 07:35:44;;;;;;;21.73;14.07;;;;;;;;;;5145304;27;20074;-74
2023/12/07 07:38:11;;;;;;;52.13;15.35;;;;;;;;;;5143687;27;20170;-73
2023/12/07 07:40:37;;;;;;;40.08;14.77;;;;;;;;;;5143614;27;20051;-73
2023/12/07 07:43:04;;;;;;;61.50;17.10;;;;;;;;;;5142983;27;20132;-73
2023/12/07 07:45:30;;;;;;;34.35;14.73;;;;;;;;;;5144945;27;20059;-73
2023/12/07 07:47:57;;;;;;;41.58;15.43;;;;;;;;;;5144249;27;20051;-74
2023/12/07 07:50:24;;;;;;;70.05;18.20;;;;;;;;;;5143796;27;20143;-73
2023/12/07 07:52:50;;;;;;;24.77;15.30;;;;;;;;;;5144619;27;20053;-74
2023/12/07 07:55:17;;;;;;;51.70;16.33;;;;;;;;;;5143390;27;20101;-74
2023/12/07 07:57:44;;;;;;;30.67;15.48;;;;;;;;;;5143932;27;20055;-74
2023/12/07 08:00:13;;;;;;;43.00;15.20;;;;;;;;;;5146028;27;20051;-74
2023/12/07 08:02:39;;;;;;;50.53;16.38;;;;;;;;;;5145545;27;20043;-73
2023/12/07 08:05:06;;;;;;;65.70;17.65;;;;;;;;;;5144242;27;20432;-73
2023/12/07 08:07:32;;;;;;;35.83;15.15;;;;;;;;;;5143039;27;20523;-74
2023/12/07 08:09:58;;;;;;;46.35;17.15;;;;;;;;;;5143192;27;20481;-74
2023/12/07 08:12:25;;;;;;;33.88;16.65;;;;;;;;;;5142622;27;20062;-73
2023/12/07 08:14:51;;;;;;;29.98;16.65;;;;;;;;;;5144510;27;20163;-73
2023/12/07 08:17:19;;;;;;;28.75;15.73;;;;;;;;;;5143251;27;20784;-73
2023/12/07 08:19:46;;;;;;;48.42;15.43;;;;;;;;;;5142233;27;20055;-74
2023/12/07 08:22:13;;;;;;;66.95;17.70;;;;;;;;;;5143555;27;20492;-73
2023/12/07 08:24:39;;;;;;;78.88;16.63;;;;;;;;;;5142522;27;20735;-73
2023/12/07 08:27:06;;;;;;;27.13;14.50;;;;;;;;;;5142123;27;20051;-74
2023/12/07 08:29:32;;;;;;;36.72;14.70;;;;;;;;;;5142234;27;20135;-73
2023/12/07 08:31:58;;;;;;;44.75;15.20;;;;;;;;;;5143199;27;20058;-73
2023/12/07 08:34:25;;;;;;;36.58;14.70;;;;;;;;;;5143418;27;20051;-73
2023/12/07 08:36:51;;;;;;;40.55;14.20;;;;;;;;;;5143732;27;20043;-73
2023/12/07 08:39:18;;;;;;;39.50;14.60;;;;;;;;;;5142929;27;20508;-74
2023/12/07 08:41:44;;;;;;;34.72;14.55;;;;;;;;;;5142744;27;20050;-73
2023/12/07 08:44:11;;;;;;;58.08;13.85;;;;;;;;;;5142683;27;20058;-73
2023/12/07 08:46:37;;;;;;;35.08;15.30;;;;;;;;;;5143014;27;20048;-73
2023/12/07 08:49:04;;;;;;;44.33;14.90;;;;;;;;;;5142622;27;20543;-74
2023/12/07 08:51:30;;;;;;;41.45;14.73;;;;;;;;;;5142166;27;20058;-74
2023/12/07 08:53:57;;;;;;;35.15;13.13;;;;;;;;;;5142760;27;20062;-71
2023/12/07 08:56:23;;;;;;;31.05;14.27;;;;;;;;;;5142845;27;20082;-74
2023/12/07 08:58:51;;;;;;;90.38;17.20;;;;;;;;;;5142106;27;20055;-73
2023/12/07 09:01:17;;;;;;;32.53;14.50;;;;;;;;;;5142460;27;20053;-73
2023/12/07 09:03:57;;;;;;;36.72;14.68;;;;;;;;;;5131305;27;20535;-73
2023/12/07 09:06:24;;;;;;;26.33;13.98;;;;;;;;;;5141375;27;20598;-73
2023/12/07 09:08:51;;;;;;;33.53;14.30;;;;;;;;;;5141606;27;20599;-74
2023/12/07 09:11:18;;;;;;;50.92;16.35;;;;;;;;;;5140840;27;20134;-73
2023/12/07 09:13:44;;;;;;;51.25;15.63;;;;;;;;;;5142896;27;20122;-73
2023/12/07 09:16:11;;;;;;;29.63;15.48;;;;;;;;;;5142307;27;20050;-73
2023/12/07 09:18:37;;;;;;;47.60;14.88;;;;;;;;;;5142036;27;20051;-73
2023/12/07 09:21:04;;;;;;;33.65;15.23;;;;;;;;;;5141775;27;20043;-73
2023/12/07 09:23:31;;;;;;;30.65;14.43;;;;;;;;;;5143790;27;20055;-74
2023/12/07 09:25:57;;;;;;;38.03;14.35;;;;;;;;;;5142353;27;20083;-73
2023/12/07 09:28:23;;;;;;;27.23;15.07;;;;;;;;;;5140192;27;20790;-74
2023/12/07 09:30:50;;;;;;;38.83;13.77;;;;;;;;;;5142858;27;20126;-73
2023/12/07 09:33:16;;;;;;;51.45;15.50;;;;;;;;;;5142662;27;20139;-74
2023/12/07 09:35:44;;;;;;;47.33;14.93;;;;;;;;;;5141032;27;20051;-73
2023/12/07 09:38:11;;;;;;;53.80;16.52;;;;;;;;;;5142280;27;20051;-74
2023/12/07 09:40:37;;;;;;;26.23;14.63;;;;;;;;;;5142332;27;20605;-74
2023/12/07 09:43:04;;;;;;;25.38;14.75;;;;;;;;;;5140262;27;20653;-73
2023/12/07 09:45:30;;;;;;;24.77;13.07;;;;;;;;;;5141586;27;20536;-74
2023/12/07 09:47:59;;;;;;;27.15;12.63;;;;;;;;;;5141959;27;20059;-73
2023/12/07 09:50:27;;;;;;;29.48;12.32;;;;;;;;;;5141707;27;20580;-73
2023/12/07 09:52:56;;;;;;;34.58;14.20;;;;;;;;;;5141421;27;20981;-73
2023/12/07 09:55:33;;;;;;;21.63;13.23;;;;;;;;;;5141775;27;20442;-73
2023/12/07 09:58:03;;;;;;;24.08;13.50;;;;;;;;;;5141585;27;20051;-74
2023/12/07 10:00:29;;;;;;;22.67;13.75;;;;;;;;;;5142651;27;20139;-73
2023/12/07 10:02:56;;;;;;;20.05;11.90;;;;;;;;;;5143136;27;20078;-73
2023/12/07 10:05:23;;;;;;;25.67;12.45;;;;;;;;;;5142208;27;20054;-73
2023/12/07 10:07:50;;;;;;;21.63;13.32;;;;;;;;;;5142266;27;20044;-73
2023/12/07 10:10:18;;;;;;;28.95;11.38;;;;;;;;;;5141903;27;20127;-73
2023/12/07 10:12:46;;;;;;;42.58;13.10;;;;;;;;;;5142074;27;20047;-73
2023/12/07 10:15:13;;;;;;;25.73;11.57;;;;;;;;;;5141732;27;20851;-73
2023/12/07 10:18:07;;;;;;;34.25;11.35;;;;;;;;;;5141686;27;20108;-73
2023/12/07 10:20:34;;;;;;;17.67;9.10;;;;;;;;;;5137414;27;20055;-74
2023/12/07 10:23:04;;;;;;;17.08;9.18;;;;;;;;;;5145503;27;20058;-73
2023/12/07 10:25:31;;;;;;;26.67;9.70;;;;;;;;;;5143335;27;20101;-72
2023/12/07 10:27:58;;;;;;;20.30;9.75;;;;;;;;;;5144923;27;20151;-73
2023/12/07 10:30:26;;;;;;;15.60;9.35;;;;;;;;;;5143878;27;20051;-73
2023/12/07 10:32:53;;;;;;;14.18;8.88;;;;;;;;;;5145674;27;20051;-73
2023/12/07 10:35:22;;;;;;;18.20;8.32;;;;;;;;;;5144846;27;20051;-73
2023/12/07 10:37:49;;;;;;;12.05;7.30;;;;;;;;;;5144943;27;20048;-73
2023/12/07 10:40:16;;;;;;;11.98;7.07;;;;;;;;;;5143516;27;20151;-72
2023/12/07 10:42:47;;;;;;;16.10;8.05;;;;;;;;;;5143707;27;20054;-73
2023/12/07 10:45:15;;;;;;;17.08;8.27;;;;;;;;;;5146431;27;20051;-73
2023/12/07 10:47:43;;;;;;;19.63;8.77;;;;;;;;;;5142835;27;20047;-72
2023/12/07 10:50:13;;;;;;;17.38;8.98;;;;;;;;;;5145371;27;20088;-74
2023/12/07 10:52:44;;;;;;;18.20;8.98;;;;;;;;;;5144900;27;20047;-74
2023/12/07 10:55:19;;;;;;;19.63;9.45;;;;;;;;;;5146348;27;20104;-74
2023/12/07 10:57:47;;;;;;;28.60;8.60;;;;;;;;;;5145146;27;20489;-74
2023/12/07 11:00:14;;;;;;;14.75;7.57;;;;;;;;;;5146606;27;20065;-73
2023/12/07 11:02:42;;;;;;;19.38;7.65;;;;;;;;;;5146522;27;20055;-73
2023/12/07 11:05:09;;;;;;;24.70;9.10;;;;;;;;;;5146797;27;20100;-73
2023/12/07 11:07:47;;;;;;;18.05;9.63;;;;;;;;;;5144054;27;20492;-73
2023/12/07 11:10:37;;;;;;;14.23;8.88;;;;;;;;;;5144312;27;20051;-73
2023/12/07 11:13:23;;;;;;;14.35;8.57;;;;;;;;;;5123660;27;20101;-73
2023/12/07 11:15:50;;;;;;;17.88;8.98;;;;;;;;;;5144390;27;20532;-72
2023/12/07 11:18:17;;;;;;;17.50;9.43;;;;;;;;;;5145444;27;20063;-73
2023/12/07 11:20:47;;;;;;;18.90;9.27;;;;;;;;;;5143717;27;20124;-73
2023/12/07 11:23:20;;;;;;;16.38;8.70;;;;;;;;;;5145570;27;20053;-74
2023/12/07 11:25:47;;;;;;;16.30;8.65;;;;;;;;;;5143037;27;20417;-73
2023/12/07 11:28:14;;;;;;;17.13;9.48;;;;;;;;;;5144763;27;20557;-73
2023/12/07 11:30:42;;;;;;;14.90;8.57;;;;;;;;;;5144264;27;20523;-73
2023/12/07 11:33:09;;;;;;;14.70;8.45;;;;;;;;;;5143253;27;20047;-73
2023/12/07 11:35:54;;;;;;;16.65;8.82;;;;;;;;;;5143308;27;20055;-73
2023/12/07 11:38:21;;;;;;;13.27;7.93;;;;;;;;;;5143544;27;20059;-73
2023/12/07 11:40:48;;;;;;;16.58;8.90;;;;;;;;;;5144534;27;20269;-74
2023/12/07 11:43:18;;;;;;;16.27;9.18;;;;;;;;;;5143729;27;20039;-74
2023/12/07 11:45:51;;;;;;;18.38;8.60;;;;;;;;;;5140398;27;20899;-74
2023/12/07 11:48:18;;;;;;;17.70;8.80;;;;;;;;;;5139288;27;20146;-73
2023/12/07 11:51:17;;;;;;;19.80;8.93;;;;;;;;;;5143727;27;20062;-72
2023/12/07 11:53:44;;;;;;;19.48;9.85;;;;;;;;;;5110848;27;20799;-73
2023/12/07 11:56:13;;;;;;;16.20;9.23;;;;;;;;;;5143957;27;20051;-73
2023/12/07 11:58:39;;;;;;;17.05;9.18;;;;;;;;;;5141971;27;20134;-73
2023/12/07 12:01:08;;;;;;;17.73;9.20;;;;;;;;;;5143401;27;20135;-73
2023/12/07 12:03:36;;;;;;;21.55;10.18;;;;;;;;;;5142201;27;20259;-73
2023/12/07 12:06:04;;;;;;;19.88;10.57;;;;;;;;;;5143968;27;20844;-73
2023/12/07 12:08:31;;;;;;;24.20;10.35;;;;;;;;;;5144125;27;20054;-73
2023/12/07 12:10:57;;;;;;;21.02;10.45;;;;;;;;;;5143479;27;20137;-73
2023/12/07 12:13:28;;;;;;;26.33;11.05;;;;;;;;;;5139426;27;20055;-73
2023/12/07 12:15:56;;;;;;;20.73;10.40;;;;;;;;;;5139665;27;20138;-73
2023/12/07 12:18:23;;;;;;;32.72;11.88;;;;;;;;;;5150295;27;20051;-73
2023/12/07 12:20:51;;;;;;;25.30;10.63;;;;;;;;;;5143361;27;20061;-74
2023/12/07 12:23:18;;;;;;;25.33;12.25;;;;;;;;;;5144016;27;20138;-74
2023/12/07 12:25:45;;;;;;;22.73;12.00;;;;;;;;;;5143327;27;20663;-74
2023/12/07 12:28:15;;;;;;;26.60;12.65;;;;;;;;;;5143317;27;20100;-74
2023/12/07 12:30:42;;;;;;;27.50;12.52;;;;;;;;;;5139410;27;20058;-73
2023/12/07 12:33:08;;;;;;;25.48;13.05;;;;;;;;;;5144140;27;20126;-74
2023/12/07 12:35:35;;;;;;;21.92;11.57;;;;;;;;;;5143607;27;20055;-74
2023/12/07 12:38:01;;;;;;;25.17;12.18;;;;;;;;;;5142511;27;20055;-74
2023/12/07 12:40:31;;;;;;;25.33;12.57;;;;;;;;;;5142750;27;20547;-74
2023/12/07 12:42:58;;;;;;;27.25;13.57;;;;;;;;;;5143791;27;20480;-74
2023/12/07 12:45:24;;;;;;;27.88;13.90;;;;;;;;;;5140994;27;20055;-75
2023/12/07 12:47:52;;;;;;;29.20;13.82;;;;;;;;;;5137873;27;20100;-74
2023/12/07 12:50:36;;;;;;;28.33;12.43;;;;;;;;;;5150511;27;20087;-74
2023/12/07 12:53:03;;;;;;;31.10;14.82;;;;;;;;;;5139243;27;20047;-73
2023/12/07 12:55:30;;;;;;;27.15;12.38;;;;;;;;;;5142137;27;20078;-73
2023/12/07 12:57:58;;;;;;;24.67;13.32;;;;;;;;;;5142254;27;20744;-74
2023/12/07 13:00:24;;;;;;;26.13;12.43;;;;;;;;;;5142633;27;20059;-75
2023/12/07 13:02:51;;;;;;;26.85;13.30;;;;;;;;;;5143800;27;20519;-74
2023/12/07 13:05:17;;;;;;;30.02;14.68;;;;;;;;;;5142133;27;20047;-73
2023/12/07 13:07:44;;;;;;;29.90;14.27;;;;;;;;;;5145517;27;20039;-73
2023/12/07 13:10:11;;;;;;;31.83;15.27;;;;;;;;;;5142853;27;20495;-73
2023/12/07 13:12:37;;;;;;;29.27;14.63;;;;;;;;;;5141467;27;20493;-73
2023/12/07 13:15:04;;;;;;;31.63;15.23;;;;;;;;;;5141654;27;20584;-74
2023/12/07 13:17:30;;;;;;;30.90;16.40;;;;;;;;;;5141483;27;20089;-74
2023/12/07 13:19:57;;;;;;;32.15;15.27;;;;;;;;;;5140480;27;20182;-74
2023/12/07 13:22:23;;;;;;;30.10;14.82;;;;;;;;;;5134960;27;20058;-73
2023/12/07 13:24:50;;;;;;;36.85;18.60;;;;;;;;;;5144929;27;20059;-74
2023/12/07 13:27:17;;;;;;;41.63;20.13;;;;;;;;;;5141682;27;20147;-73
2023/12/07 13:29:44;;;;;;;38.88;19.40;;;;;;;;;;5143893;27;20736;-74
2023/12/07 13:32:11;;;;;;;35.45;18.92;;;;;;;;;;5143546;27;20075;-74
2023/12/07 13:34:38;;;;;;;32.08;17.60;;;;;;;;;;5141972;27;20047;-73
2023/12/07 13:37:05;;;;;;;30.17;16.85;;;;;;;;;;5142369;27;20057;-74
2023/12/07 13:39:31;;;;;;;31.38;16.80;;;;;;;;;;5139627;27;20055;-74
2023/12/07 13:41:58;;;;;;;33.35;16.30;;;;;;;;;;5141327;27;20429;-74
2023/12/07 13:44:27;;;;;;;32.38;16.63;;;;;;;;;;5139621;27;20055;-73
2023/12/07 13:46:56;;;;;;;33.83;17.48;;;;;;;;;;5141449;27;20646;-73
2023/12/07 13:49:23;;;;;;;30.73;17.17;;;;;;;;;;5140661;27;20108;-74
2023/12/07 13:51:59;;;;;;;32.95;16.70;;;;;;;;;;5142196;27;20054;-74
2023/12/07 13:54:32;;;;;;;35.53;16.95;;;;;;;;;;5141288;27;20074;-74
2023/12/07 13:57:19;;;;;;;34.47;17.05;;;;;;;;;;5145749;27;20062;-74
2023/12/07 13:59:46;;;;;;;38.50;16.48;;;;;;;;;;5145686;27;20055;-74
2023/12/07 14:02:12;;;;;;;33.28;17.20;;;;;;;;;;5144995;27;20094;-74
2023/12/07 14:04:39;;;;;;;36.20;17.73;;;;;;;;;;5145987;27;20051;-73
2023/12/07 14:07:09;;;;;;;34.30;18.10;;;;;;;;;;5145696;27;20167;-73
2023/12/07 14:09:37;;;;;;;32.70;17.42;;;;;;;;;;5145551;27;20090;-74
2023/12/07 14:12:18;;;;;;;35.67;18.10;;;;;;;;;;5145508;27;20074;-74
2023/12/07 14:14:46;;;;;;;39.50;19.15;;;;;;;;;;5146875;27;20047;-74
2023/12/07 14:17:13;;;;;;;35.58;17.80;;;;;;;;;;5147165;27;20134;-73
2023/12/07 14:19:41;;;;;;;33.80;18.08;;;;;;;;;;5148277;27;20090;-73
2023/12/07 14:22:10;;;;;;;37.58;19.38;;;;;;;;;;5145452;27;20068;-72